createdAt,value
2018-07-26T00:00:26.084Z,101127.30
2018-07-26T00:02:53.263Z,101124.80
2018-07-26T00:05:20.448Z,101131.65
2018-07-26T00:07:47.583Z,101137.19
2018-07-26T00:10:14.721Z,101136.80
2018-07-26T00:12:41.883Z,101136.58
2018-07-26T00:15:09.449Z,101134.03
2018-07-26T00:17:36.727Z,101131.73
2018-07-26T00:20:04.123Z,101132.28
2018-07-26T00:22:31.269Z,101128.08
2018-07-26T00:24:58.367Z,101119.83
2018-07-26T00:27:25.536Z,101121.00
2018-07-26T00:29:52.654Z,101124.03
2018-07-26T00:32:19.781Z,101123.42
2018-07-26T00:34:47.017Z,101120.55
2018-07-26T00:37:14.165Z,101129.42
2018-07-26T00:39:41.297Z,101123.77
2018-07-26T00:42:08.558Z,101122.05
2018-07-26T00:44:35.693Z,101117.81
2018-07-26T00:47:02.880Z,101118.78
2018-07-26T00:49:30.074Z,101119.42
2018-07-26T00:51:57.195Z,101115.66
2018-07-26T00:54:24.299Z,101114.12
2018-07-26T00:56:51.523Z,101114.20
2018-07-26T00:59:18.696Z,101109.99
2018-07-26T01:01:45.836Z,101111.09
2018-07-26T01:04:13.081Z,101109.52
2018-07-26T01:06:40.192Z,101118.98
2018-07-26T01:09:08.543Z,101116.86
2018-07-26T01:11:35.760Z,101122.05
2018-07-26T01:14:03.168Z,101124.82
2018-07-26T01:16:30.350Z,101135.66
2018-07-26T01:18:57.501Z,101134.79
2018-07-26T01:21:24.621Z,101130.66
2018-07-26T01:23:51.772Z,101135.72
2018-07-26T01:26:18.950Z,101137.20
2018-07-26T01:28:46.187Z,101134.72
2018-07-26T01:31:13.318Z,101131.42
2018-07-26T01:33:40.547Z,101128.70
2018-07-26T01:36:07.680Z,101129.97
2018-07-26T01:38:34.820Z,101125.36
2018-07-26T01:41:02.032Z,101121.59
2018-07-26T01:43:52.629Z,101123.33
2018-07-26T01:46:22.044Z,101125.35
2018-07-26T01:48:49.220Z,101127.80
2018-07-26T01:51:16.337Z,101126.69
2018-07-26T01:53:44.123Z,101127.34
2018-07-26T01:56:11.225Z,101130.00
2018-07-26T01:58:38.380Z,101127.48
2018-07-26T02:01:06.832Z,101133.46
2018-07-26T02:03:35.606Z,101130.47
2018-07-26T02:06:02.869Z,101132.74
2018-07-26T02:08:30.211Z,101135.73
2018-07-26T02:10:57.455Z,101135.47
2018-07-26T02:13:24.596Z,101134.46
2018-07-26T02:15:52.159Z,101137.02
2018-07-26T02:18:19.321Z,101136.36
2018-07-26T02:20:46.458Z,101131.74
2018-07-26T02:23:13.607Z,101131.55
2018-07-26T02:25:40.792Z,101129.92
2018-07-26T02:28:07.936Z,101131.09
2018-07-26T02:30:35.132Z,101127.94
2018-07-26T02:33:02.293Z,101129.91
2018-07-26T02:35:29.453Z,101131.22
2018-07-26T02:37:56.621Z,101131.56
2018-07-26T02:40:23.767Z,101132.66
2018-07-26T02:42:51.228Z,101133.66
2018-07-26T02:45:18.480Z,101128.48
2018-07-26T02:47:45.656Z,101131.44
2018-07-26T02:50:12.787Z,101133.17
2018-07-26T02:52:40.045Z,101137.99
2018-07-26T02:55:07.252Z,101138.66
2018-07-26T02:57:34.340Z,101139.75
2018-07-26T03:00:01.542Z,101139.66
2018-07-26T03:02:28.658Z,101145.57
2018-07-26T03:04:55.748Z,101141.84
2018-07-26T03:07:22.926Z,101148.28
2018-07-26T03:09:50.044Z,101145.51
2018-07-26T03:12:17.207Z,101147.92
2018-07-26T03:14:44.591Z,101150.98
2018-07-26T03:17:13.433Z,101152.22
2018-07-26T03:19:41.300Z,101155.23
2018-07-26T03:22:08.730Z,101154.98
2018-07-26T03:24:35.839Z,101152.33
2018-07-26T03:27:02.972Z,101155.80
2018-07-26T03:29:30.136Z,101156.20
2018-07-26T03:31:57.258Z,101153.39
2018-07-26T03:34:24.388Z,101148.53
2018-07-26T03:36:51.600Z,101151.53
2018-07-26T03:39:18.699Z,101147.41
2018-07-26T03:41:45.854Z,101154.92
2018-07-26T03:44:13.461Z,101152.08
2018-07-26T03:46:40.663Z,101158.84
2018-07-26T03:49:07.764Z,101157.62
2018-07-26T03:51:34.925Z,101158.90
2018-07-26T03:54:02.031Z,101161.22
2018-07-26T03:56:29.143Z,101163.09
2018-07-26T03:58:56.408Z,101164.05
2018-07-26T04:01:23.504Z,101170.02
2018-07-26T04:03:50.623Z,101167.55
2018-07-26T04:06:17.848Z,101178.46
2018-07-26T04:08:45.295Z,101168.63
2018-07-26T04:11:12.424Z,101172.87
2018-07-26T04:13:39.579Z,101169.16
2018-07-26T04:16:06.695Z,101180.72
2018-07-26T04:18:33.842Z,101169.67
2018-07-26T04:21:01.000Z,101173.84
2018-07-26T04:23:28.116Z,101176.61
2018-07-26T04:25:55.285Z,101177.91
2018-07-26T04:28:22.460Z,101170.95
2018-07-26T04:30:49.584Z,101166.77
2018-07-26T04:33:16.713Z,101172.94
2018-07-26T04:35:43.948Z,101169.11
2018-07-26T04:38:11.072Z,101171.34
2018-07-26T04:40:38.188Z,101172.70
2018-07-26T04:43:05.413Z,101176.27
2018-07-26T04:45:32.531Z,101176.75
2018-07-26T04:47:59.728Z,101178.83
2018-07-26T04:50:26.892Z,101179.39
2018-07-26T04:52:54.072Z,101188.30
2018-07-26T04:55:21.236Z,101189.33
2018-07-26T04:57:48.426Z,101189.73
2018-07-26T05:00:15.561Z,101189.60
2018-07-26T05:02:42.716Z,101190.06
2018-07-26T05:05:09.914Z,101190.53
2018-07-26T05:07:37.034Z,101195.92
2018-07-26T05:10:04.631Z,101188.72
2018-07-26T05:12:31.838Z,101195.30
2018-07-26T05:14:59.003Z,101202.58
2018-07-26T05:17:26.128Z,101205.66
2018-07-26T05:19:53.329Z,101208.03
2018-07-26T05:22:20.503Z,101201.00
2018-07-26T05:24:47.624Z,101202.97
2018-07-26T05:27:14.759Z,101198.70
2018-07-26T05:29:41.891Z,101210.63
2018-07-26T05:32:09.015Z,101212.09
2018-07-26T05:34:36.257Z,101204.52
2018-07-26T05:37:03.403Z,101200.37
2018-07-26T05:39:30.534Z,101194.73
2018-07-26T05:41:57.707Z,101195.64
2018-07-26T05:44:24.849Z,101196.34
2018-07-26T05:46:52.005Z,101200.88
2018-07-26T05:49:20.151Z,101198.76
2018-07-26T05:51:47.281Z,101195.64
2018-07-26T05:54:14.380Z,101201.06
2018-07-26T05:56:41.537Z,101206.94
2018-07-26T05:59:08.680Z,101204.92
2018-07-26T06:01:35.850Z,101202.34
2018-07-26T06:04:03.019Z,101201.71
2018-07-26T06:06:30.175Z,101210.80
2018-07-26T06:08:57.280Z,101210.33
2018-07-26T06:11:24.535Z,101217.11
2018-07-26T06:13:51.713Z,101216.89
2018-07-26T06:16:18.843Z,101216.00
2018-07-26T06:18:45.983Z,101218.66
2018-07-26T06:21:13.109Z,101220.82
2018-07-26T06:23:40.235Z,101221.55
2018-07-26T06:26:07.441Z,101218.72
2018-07-26T06:28:34.556Z,101220.25
2018-07-26T06:31:01.690Z,101222.64
2018-07-26T06:33:28.909Z,101224.84
2018-07-26T06:35:56.039Z,101225.05
2018-07-26T06:38:23.195Z,101232.30
2018-07-26T06:40:50.434Z,101232.83
2018-07-26T06:43:17.576Z,101229.55
2018-07-26T06:45:44.704Z,101234.13
2018-07-26T06:48:11.949Z,101233.45
2018-07-26T06:50:39.155Z,101237.03
2018-07-26T06:53:06.312Z,101235.12
2018-07-26T06:55:33.488Z,101242.21
2018-07-26T06:58:00.672Z,101235.27
2018-07-26T07:00:27.819Z,101245.47
2018-07-26T07:02:55.020Z,101245.25
2018-07-26T07:05:22.150Z,101243.86
2018-07-26T07:07:49.285Z,101256.57
2018-07-26T07:10:16.465Z,101253.81
2018-07-26T07:12:43.589Z,101251.56
2018-07-26T07:15:10.716Z,101256.12
2018-07-26T07:17:38.034Z,101251.98
2018-07-26T07:20:06.326Z,101249.39
2018-07-26T07:22:33.497Z,101254.06
2018-07-26T07:25:00.733Z,101257.14
2018-07-26T07:27:28.244Z,101256.50
2018-07-26T07:29:55.387Z,101255.54
2018-07-26T07:32:22.529Z,101254.78
2018-07-26T07:34:49.692Z,101252.73
2018-07-26T07:37:16.851Z,101255.64
2018-07-26T07:39:44.073Z,101254.63
2018-07-26T07:42:11.628Z,101259.38
2018-07-26T07:44:38.789Z,101262.58
2018-07-26T07:47:06.030Z,101259.39
2018-07-26T07:49:33.587Z,101262.22
2018-07-26T07:52:00.817Z,101265.30
2018-07-26T07:54:27.981Z,101267.02
2018-07-26T07:56:55.111Z,101263.78
2018-07-26T07:59:22.315Z,101267.15
2018-07-26T08:01:49.515Z,101271.89
2018-07-26T08:04:16.641Z,101272.14
2018-07-26T08:06:43.830Z,101277.79
2018-07-26T08:09:11.809Z,101273.35
2018-07-26T08:11:39.022Z,101274.19
2018-07-26T08:14:06.770Z,101271.91
2018-07-26T08:16:33.921Z,101279.42
2018-07-26T08:19:01.100Z,101279.17
2018-07-26T08:21:28.248Z,101280.97
2018-07-26T08:23:55.532Z,101282.11
2018-07-26T08:26:22.673Z,101271.66
2018-07-26T08:28:49.808Z,101279.82
2018-07-26T08:31:17.046Z,101283.92
2018-07-26T08:33:44.162Z,101275.27
2018-07-26T08:36:11.334Z,101278.94
2018-07-26T08:38:38.532Z,101277.67
2018-07-26T08:41:05.718Z,101280.37
2018-07-26T08:43:32.852Z,101275.50
2018-07-26T08:46:00.019Z,101284.78
2018-07-26T08:48:27.159Z,101277.53
2018-07-26T08:50:54.309Z,101279.15
2018-07-26T08:53:21.566Z,101283.74
2018-07-26T08:55:48.724Z,101283.58
2018-07-26T08:58:15.873Z,101288.45
2018-07-26T09:00:43.073Z,101285.69
2018-07-26T09:03:10.301Z,101288.67
2018-07-26T09:05:37.467Z,101277.68
2018-07-26T09:08:04.660Z,101286.81
2018-07-26T09:10:31.788Z,101284.95
2018-07-26T09:12:58.952Z,101278.98
2018-07-26T09:15:26.480Z,101283.63
2018-07-26T09:17:53.600Z,101285.81
2018-07-26T09:20:20.739Z,101281.13
2018-07-26T09:22:47.901Z,101290.52
2018-07-26T09:25:15.038Z,101279.48
2018-07-26T09:27:42.177Z,101281.02
2018-07-26T09:30:09.978Z,101285.89
2018-07-26T09:32:37.182Z,101283.63
2018-07-26T09:35:04.757Z,101279.42
2018-07-26T09:37:31.940Z,101276.86
2018-07-26T09:39:59.170Z,101279.39
2018-07-26T09:42:26.305Z,101276.19
2018-07-26T09:44:53.557Z,101273.95
2018-07-26T09:47:20.770Z,101276.88
2018-07-26T09:49:47.879Z,101272.50
2018-07-26T09:52:15.087Z,101281.08
2018-07-26T09:54:42.811Z,101268.59
2018-07-26T09:57:09.952Z,101272.55
2018-07-26T09:59:37.169Z,101273.56
2018-07-26T10:02:04.332Z,101274.16
2018-07-26T10:04:31.439Z,101269.55
2018-07-26T10:06:58.714Z,101261.77
2018-07-26T10:09:25.839Z,101260.45
2018-07-26T10:11:52.966Z,101260.84
2018-07-26T10:14:20.148Z,101258.38
2018-07-26T10:16:47.318Z,101262.48
2018-07-26T10:19:14.442Z,101257.02
2018-07-26T10:21:41.648Z,101260.34
2018-07-26T10:24:08.835Z,101263.84
2018-07-26T10:26:36.078Z,101258.38
2018-07-26T10:29:03.248Z,101258.59
2018-07-26T10:31:30.373Z,101241.19
2018-07-26T10:33:57.523Z,101259.97
2018-07-26T10:36:24.768Z,101258.91
2018-07-26T10:38:51.903Z,101258.92
2018-07-26T10:41:19.109Z,101258.20
2018-07-26T10:43:46.282Z,101256.11
2018-07-26T10:46:13.401Z,101253.94
2018-07-26T10:48:40.609Z,101251.25
2018-07-26T10:51:07.799Z,101248.30
2018-07-26T10:53:34.967Z,101246.63
2018-07-26T10:56:02.164Z,101240.07
2018-07-26T10:58:29.456Z,101236.99
2018-07-26T11:00:56.575Z,101243.77
2018-07-26T11:03:23.701Z,101239.59
2018-07-26T11:05:50.967Z,101238.37
2018-07-26T11:08:18.402Z,101231.84
2018-07-26T11:10:45.571Z,101233.49
2018-07-26T11:13:12.798Z,101234.57
2018-07-26T11:15:39.972Z,101231.45
2018-07-26T11:18:07.157Z,101234.20
2018-07-26T11:20:34.348Z,101233.58
2018-07-26T11:23:01.471Z,101233.05
2018-07-26T11:25:28.615Z,101229.85
2018-07-26T11:27:55.824Z,101225.21
2018-07-26T11:30:23.359Z,101228.98
2018-07-26T11:32:50.544Z,101226.58
2018-07-26T11:35:17.764Z,101229.42
2018-07-26T11:37:44.870Z,101217.13
2018-07-26T11:40:12.001Z,101217.45
2018-07-26T11:42:39.312Z,101217.77
2018-07-26T11:45:07.481Z,101206.09
2018-07-26T11:47:34.677Z,101211.14
2018-07-26T11:50:01.966Z,101207.98
2018-07-26T11:52:29.170Z,101208.28
2018-07-26T11:54:56.313Z,101204.78
2018-07-26T11:57:23.616Z,101194.45
2018-07-26T11:59:50.891Z,101200.16
2018-07-26T12:02:18.062Z,101201.05
2018-07-26T12:04:45.261Z,101194.39
2018-07-26T12:07:12.468Z,101189.20
2018-07-26T12:09:39.962Z,101178.40
2018-07-26T12:12:07.320Z,101181.47
2018-07-26T12:14:34.429Z,101185.56
2018-07-26T12:17:01.553Z,101175.14
2018-07-26T12:19:28.727Z,101174.59
2018-07-26T12:21:55.894Z,101178.55
2018-07-26T12:24:23.020Z,101178.63
2018-07-26T12:26:50.805Z,101161.33
2018-07-26T12:29:17.884Z,101157.43
2018-07-26T12:31:45.004Z,101156.42
2018-07-26T12:34:12.200Z,101159.61
2018-07-26T12:36:39.321Z,101154.66
2018-07-26T12:39:08.228Z,101156.17
2018-07-26T12:41:35.403Z,101143.37
2018-07-26T12:44:02.574Z,101144.77
2018-07-26T12:46:29.707Z,101139.95
2018-07-26T12:48:56.943Z,101141.56
2018-07-26T12:51:24.080Z,101149.20
2018-07-26T12:53:51.252Z,101137.16
2018-07-26T12:56:18.469Z,101133.80
2018-07-26T12:58:45.657Z,101137.56
2018-07-26T13:01:12.768Z,101138.02
2018-07-26T13:03:39.951Z,101136.03
2018-07-26T13:06:07.064Z,101124.63
2018-07-26T13:08:34.196Z,101129.40
2018-07-26T13:11:01.437Z,101133.96
2018-07-26T13:13:28.570Z,101123.22
2018-07-26T13:15:55.667Z,101127.16
2018-07-26T13:18:22.826Z,101118.13
2018-07-26T13:20:49.985Z,101122.55
2018-07-26T13:23:17.144Z,101124.92
2018-07-26T13:25:44.497Z,101119.83
2018-07-26T13:28:11.645Z,101120.00
2018-07-26T13:30:38.843Z,101119.13
2018-07-26T13:33:06.114Z,101122.38
2018-07-26T13:35:33.280Z,101124.08
2018-07-26T13:38:00.402Z,101121.34
2018-07-26T13:40:27.628Z,101122.00
2018-07-26T13:42:55.036Z,101118.08
2018-07-26T13:45:22.147Z,101113.62
2018-07-26T13:47:49.313Z,101113.45
2018-07-26T13:50:16.519Z,101116.66
2018-07-26T13:52:43.697Z,101104.55
2018-07-26T13:55:10.992Z,101111.80
2018-07-26T13:57:38.113Z,101114.91
2018-07-26T14:00:05.561Z,101108.73
2018-07-26T14:02:32.747Z,101113.30
2018-07-26T14:04:59.869Z,101103.83
2018-07-26T14:07:26.987Z,101106.69
2018-07-26T14:09:54.207Z,101104.41
2018-07-26T14:12:21.360Z,101102.08
2018-07-26T14:14:48.532Z,101103.99
2018-07-26T14:17:15.753Z,101098.78
2018-07-26T14:19:44.914Z,101103.38
2018-07-26T14:22:12.084Z,101097.41
2018-07-26T14:24:39.308Z,101104.26
2018-07-26T14:27:06.477Z,101104.27
2018-07-26T14:29:33.610Z,101103.47
2018-07-26T14:32:00.781Z,101094.02
2018-07-26T14:34:27.900Z,101091.59
2018-07-26T14:36:55.032Z,101094.70
2018-07-26T14:39:22.247Z,101100.25
2018-07-26T14:41:49.421Z,101092.47
2018-07-26T14:44:16.569Z,101084.58
2018-07-26T14:46:43.782Z,101082.27
2018-07-26T14:49:10.906Z,101076.58
2018-07-26T14:51:38.035Z,101081.78
2018-07-26T14:54:05.256Z,101076.12
2018-07-26T14:56:32.425Z,101084.37
2018-07-26T14:58:59.695Z,101077.06
2018-07-26T15:01:27.056Z,101074.80
2018-07-26T15:03:54.177Z,101078.20
2018-07-26T15:06:21.329Z,101073.27
2018-07-26T15:08:48.460Z,101072.60
2018-07-26T15:11:15.619Z,101073.99
2018-07-26T15:13:42.724Z,101076.83
2018-07-26T15:16:09.894Z,101076.26
2018-07-26T15:18:37.028Z,101060.83
2018-07-26T15:21:04.253Z,101068.34
2018-07-26T15:23:31.440Z,101069.28
2018-07-26T15:25:58.645Z,101068.33
2018-07-26T15:28:25.759Z,101073.94
2018-07-26T15:30:52.936Z,101073.63
2018-07-26T15:33:20.069Z,101070.50
2018-07-26T15:35:47.181Z,101074.90
2018-07-26T15:38:14.324Z,101068.59
2018-07-26T15:40:41.489Z,101071.35
2018-07-26T15:43:08.658Z,101081.91
2018-07-26T15:45:35.983Z,101076.63
2018-07-26T15:48:04.173Z,101073.11
2018-07-26T15:50:31.311Z,101074.53
2018-07-26T15:52:58.589Z,101070.64
2018-07-26T15:55:25.765Z,101070.76
2018-07-26T15:57:53.172Z,101069.01
2018-07-26T16:00:20.467Z,101072.33
2018-07-26T16:02:47.636Z,101067.91
2018-07-26T16:05:14.816Z,101065.55
2018-07-26T16:07:42.132Z,101065.02
2018-07-26T16:10:09.378Z,101066.95
2018-07-26T16:12:36.684Z,101062.55
2018-07-26T16:15:06.376Z,101052.50
2018-07-26T16:17:33.559Z,101058.86
2018-07-26T16:20:00.682Z,101061.53
2018-07-26T16:22:27.953Z,101057.02
2018-07-26T16:24:55.066Z,101047.94
2018-07-26T16:27:22.199Z,101058.09
2018-07-26T16:29:49.381Z,101056.48
2018-07-26T16:32:16.580Z,101054.38
2018-07-26T16:34:43.747Z,101053.36
2018-07-26T16:37:11.010Z,101051.88
2018-07-26T16:39:38.156Z,101054.56
2018-07-26T16:42:05.308Z,101057.00
2018-07-26T16:44:32.463Z,101054.11
2018-07-26T16:46:59.584Z,101048.59
2018-07-26T16:49:27.252Z,101048.22
2018-07-26T16:51:54.533Z,101048.44
2018-07-26T16:54:21.675Z,101048.23
2018-07-26T16:56:48.885Z,101049.08
2018-07-26T16:59:16.053Z,101054.95
2018-07-26T17:01:43.217Z,101051.69
2018-07-26T17:04:10.420Z,101052.01
2018-07-26T17:06:37.650Z,101045.31
2018-07-26T17:09:07.605Z,101050.27
2018-07-26T17:11:34.733Z,101046.42
2018-07-26T17:14:01.928Z,101047.76
2018-07-26T17:16:29.148Z,101052.59
2018-07-26T17:18:56.321Z,101052.17
2018-07-26T17:21:23.634Z,101052.36
2018-07-26T17:23:50.814Z,101049.75
2018-07-26T17:26:17.981Z,101047.95
2018-07-26T17:28:45.159Z,101053.22
2018-07-26T17:31:12.299Z,101052.13
2018-07-26T17:33:39.509Z,101054.63
2018-07-26T17:36:06.871Z,101055.86
2018-07-26T17:38:34.008Z,101052.92
2018-07-26T17:41:01.152Z,101056.05
2018-07-26T17:43:28.344Z,101053.89
2018-07-26T17:45:55.519Z,101060.66
2018-07-26T17:48:22.731Z,101060.37
2018-07-26T17:50:50.029Z,101059.28
2018-07-26T17:53:17.285Z,101058.06
2018-07-26T17:55:44.488Z,101061.30
2018-07-26T17:58:11.671Z,101060.73
2018-07-26T18:00:38.793Z,101068.30
2018-07-26T18:03:05.911Z,101066.25
2018-07-26T18:05:33.189Z,101062.48
2018-07-26T18:08:00.296Z,101065.16
2018-07-26T18:10:27.424Z,101066.14
2018-07-26T18:12:54.585Z,101072.42
2018-07-26T18:15:21.729Z,101074.00
2018-07-26T18:17:48.956Z,101070.44
2018-07-26T18:20:16.208Z,101076.97
2018-07-26T18:22:43.336Z,101081.20
2018-07-26T18:25:10.452Z,101076.19
2018-07-26T18:27:37.697Z,101078.38
2018-07-26T18:30:05.960Z,101082.53
2018-07-26T18:32:33.085Z,101081.08
2018-07-26T18:35:00.287Z,101082.72
2018-07-26T18:37:27.388Z,101084.15
2018-07-26T18:39:54.566Z,101089.27
2018-07-26T18:42:21.850Z,101084.98
2018-07-26T18:44:48.987Z,101093.30
2018-07-26T18:47:16.116Z,101092.72
2018-07-26T18:49:43.301Z,101091.70
2018-07-26T18:52:10.468Z,101092.64
2018-07-26T18:54:37.689Z,101099.67
2018-07-26T18:57:05.057Z,101099.58
2018-07-26T18:59:32.222Z,101103.18
2018-07-26T19:01:59.423Z,101107.37
2018-07-26T19:04:26.630Z,101104.18
2018-07-26T19:06:53.881Z,101109.35
2018-07-26T19:09:21.047Z,101109.92
2018-07-26T19:11:48.303Z,101115.33
2018-07-26T19:14:15.453Z,101120.44
2018-07-26T19:16:42.602Z,101125.09
2018-07-26T19:19:09.824Z,101121.39
2018-07-26T19:21:36.979Z,101130.41
2018-07-26T19:24:04.224Z,101132.09
2018-07-26T19:26:31.460Z,101134.63
2018-07-26T19:28:58.660Z,101136.30
2018-07-26T19:31:25.805Z,101137.73
2018-07-26T19:33:53.097Z,101149.19
2018-07-26T19:36:20.284Z,101147.53
2018-07-26T19:38:47.384Z,101147.53
2018-07-26T19:41:14.568Z,101144.34
2018-07-26T19:43:41.716Z,101148.57
2018-07-26T19:46:08.910Z,101153.00
2018-07-26T19:48:36.098Z,101153.43
2018-07-26T19:51:03.325Z,101155.77
2018-07-26T19:53:30.440Z,101154.09
2018-07-26T19:55:57.662Z,101160.30
2018-07-26T19:58:24.814Z,101160.56
2018-07-26T20:00:51.964Z,101160.23
2018-07-26T20:03:19.226Z,101159.59
2018-07-26T20:05:46.377Z,101163.34
2018-07-26T20:08:13.649Z,101166.79
2018-07-26T20:10:40.844Z,101169.42
2018-07-26T20:13:08.018Z,101165.17
2018-07-26T20:15:35.178Z,101163.83
2018-07-26T20:18:02.372Z,101162.75
2018-07-26T20:20:29.509Z,101160.75
2018-07-26T20:22:56.649Z,101164.98
2018-07-26T20:25:23.818Z,101170.20
2018-07-26T20:27:50.975Z,101170.95
2018-07-26T20:30:18.183Z,101178.27
2018-07-26T20:32:45.355Z,101171.16
2018-07-26T20:35:12.538Z,101171.41
2018-07-26T20:37:39.693Z,101166.89
2018-07-26T20:40:08.390Z,101172.08
2018-07-26T20:42:35.540Z,101169.36
2018-07-26T20:45:02.741Z,101174.73
2018-07-26T20:47:29.957Z,101172.09
2018-07-26T20:49:57.179Z,101169.68
2018-07-26T20:52:24.322Z,101176.10
2018-07-26T20:54:51.488Z,101175.23
2018-07-26T20:57:18.621Z,101180.00
2018-07-26T20:59:45.790Z,101172.77
2018-07-26T21:02:13.359Z,101177.84
2018-07-26T21:04:40.529Z,101181.45
2018-07-26T21:07:07.761Z,101171.70
2018-07-26T21:09:35.143Z,101174.08
2018-07-26T21:12:02.264Z,101172.63
2018-07-26T21:14:29.371Z,101172.17
2018-07-26T21:16:56.607Z,101184.52
2018-07-26T21:19:23.708Z,101178.48
2018-07-26T21:21:50.832Z,101179.98
2018-07-26T21:24:18.016Z,101178.99
2018-07-26T21:26:45.208Z,101181.72
2018-07-26T21:29:12.404Z,101188.00
2018-07-26T21:31:39.601Z,101188.14
2018-07-26T21:34:06.712Z,101189.63
2018-07-26T21:36:33.828Z,101195.47
2018-07-26T21:39:00.963Z,101192.25
2018-07-26T21:41:28.103Z,101188.25
2018-07-26T21:43:55.207Z,101192.78
2018-07-26T21:46:22.500Z,101188.98
2018-07-26T21:48:49.630Z,101187.19
2018-07-26T21:51:16.769Z,101185.09
2018-07-26T21:53:44.129Z,101180.59
2018-07-26T21:56:11.288Z,101177.45
2018-07-26T21:58:38.404Z,101179.93
2018-07-26T22:01:05.645Z,101181.78
2018-07-26T22:03:32.774Z,101182.52
2018-07-26T22:05:59.879Z,101178.97
2018-07-26T22:08:27.086Z,101175.91
2018-07-26T22:10:54.345Z,101182.50
2018-07-26T22:13:21.496Z,101184.31
2018-07-26T22:15:50.188Z,101178.19
2018-07-26T22:18:17.344Z,101180.61
2018-07-26T22:20:44.476Z,101185.67
2018-07-26T22:23:11.811Z,101183.95
2018-07-26T22:25:38.958Z,101185.68
2018-07-26T22:28:06.063Z,101185.30
2018-07-26T22:30:33.310Z,101185.00
2018-07-26T22:33:00.440Z,101181.67
2018-07-26T22:35:27.576Z,101183.38
2018-07-26T22:37:54.812Z,101178.30
2018-07-26T22:40:22.039Z,101179.73
2018-07-26T22:42:49.205Z,101187.59
2018-07-26T22:45:16.386Z,101189.68
2018-07-26T22:47:43.491Z,101187.78
2018-07-26T22:50:10.707Z,101191.02
2018-07-26T22:52:37.955Z,101188.91
2018-07-26T22:55:05.200Z,101186.05
2018-07-26T22:57:32.345Z,101180.49
2018-07-26T22:59:59.523Z,101184.51
2018-07-26T23:02:26.744Z,101181.45
2018-07-26T23:04:53.944Z,101188.91
2018-07-26T23:07:21.193Z,101191.68
2018-07-26T23:09:48.321Z,101190.42
2018-07-26T23:12:15.495Z,101185.76
2018-07-26T23:14:42.690Z,101188.05
2018-07-26T23:17:09.832Z,101191.94
2018-07-26T23:19:36.985Z,101185.06
2018-07-26T23:22:04.276Z,101184.11
2018-07-26T23:24:31.435Z,101183.16
2018-07-26T23:26:58.576Z,101176.39
2018-07-26T23:29:25.831Z,101181.34
2018-07-26T23:31:52.945Z,101187.86
2018-07-26T23:34:20.087Z,101181.12
2018-07-26T23:36:47.335Z,101186.88
2018-07-26T23:39:14.464Z,101180.08
2018-07-26T23:41:41.609Z,101174.41
2018-07-26T23:44:09.040Z,101171.35
2018-07-26T23:46:36.304Z,101166.93
2018-07-26T23:49:03.507Z,101173.43
2018-07-26T23:51:30.845Z,101165.02
2018-07-26T23:53:57.975Z,101165.41
2018-07-26T23:56:25.101Z,101162.52
2018-07-26T23:58:52.469Z,101169.73
